createdAt,value
2023-02-27T00:01:25.815Z,1.60
2023-02-27T00:03:54.361Z,1.70
2023-02-27T00:06:22.850Z,1.93
2023-02-27T00:08:51.309Z,1.70
2023-02-27T00:11:19.738Z,1.63
2023-02-27T00:13:50.042Z,1.80
2023-02-27T00:16:21.716Z,1.40
2023-02-27T00:18:50.169Z,1.93
2023-02-27T00:21:18.843Z,1.80
2023-02-27T00:23:47.375Z,1.93
2023-02-27T00:26:15.849Z,1.70
2023-02-27T00:28:45.767Z,1.53
2023-02-27T00:31:14.557Z,1.63
2023-02-27T00:33:45.097Z,1.60
2023-02-27T00:36:13.551Z,1.40
2023-02-27T00:38:44.594Z,1.60
2023-02-27T00:41:13.047Z,1.80
2023-02-27T00:43:41.670Z,2.30
2023-02-27T00:46:10.451Z,2.90
2023-02-27T00:48:39.111Z,2.10
2023-02-27T00:51:09.252Z,1.40
2023-02-27T00:53:37.724Z,2.00
2023-02-27T00:56:06.494Z,1.40
2023-02-27T00:58:35.059Z,1.33
2023-02-27T01:01:03.539Z,1.50
2023-02-27T01:03:35.257Z,1.33
2023-02-27T01:06:05.376Z,1.50
2023-02-27T01:08:35.290Z,1.83
2023-02-27T01:11:03.726Z,1.20
2023-02-27T01:13:32.274Z,1.20
2023-02-27T01:16:00.692Z,1.30
2023-02-27T01:18:29.152Z,1.60
2023-02-27T01:20:57.601Z,1.60
2023-02-27T01:23:26.119Z,1.97
2023-02-27T01:25:55.888Z,1.57
2023-02-27T01:28:24.322Z,1.43
2023-02-27T01:30:52.781Z,1.50
2023-02-27T01:33:21.296Z,1.50
2023-02-27T01:35:49.715Z,1.50
2023-02-27T01:38:18.226Z,1.73
2023-02-27T01:40:46.575Z,1.20
2023-02-27T01:43:16.855Z,1.60
2023-02-27T01:45:47.869Z,1.50
2023-02-27T01:48:17.043Z,1.40
2023-02-27T01:50:46.785Z,1.73
2023-02-27T01:53:15.179Z,1.50
2023-02-27T01:55:43.555Z,1.20
2023-02-27T01:58:12.350Z,1.27
2023-02-27T02:00:42.231Z,1.47
2023-02-27T02:03:13.552Z,1.60
2023-02-27T02:05:42.057Z,1.53
2023-02-27T02:08:10.408Z,1.60
2023-02-27T02:10:38.865Z,1.87
2023-02-27T02:13:07.527Z,1.70
2023-02-27T02:15:38.520Z,1.53
2023-02-27T02:18:12.248Z,1.33
2023-02-27T02:20:58.299Z,1.77
2023-02-27T02:23:44.612Z,1.50
2023-02-27T02:26:25.094Z,1.63
2023-02-27T02:29:12.476Z,1.60
2023-02-27T02:31:52.734Z,1.50
2023-02-27T02:34:27.179Z,1.50
2023-02-27T02:37:26.288Z,1.50
2023-02-27T02:40:01.495Z,1.50
2023-02-27T02:42:31.682Z,1.90
2023-02-27T02:45:02.730Z,1.30
2023-02-27T02:47:33.018Z,1.50
2023-02-27T02:50:02.474Z,1.67
2023-02-27T02:52:32.120Z,1.30
2023-02-27T02:55:03.336Z,1.70
2023-02-27T02:57:32.507Z,1.50
2023-02-27T03:00:02.606Z,1.63
2023-02-27T03:02:31.344Z,1.60
2023-02-27T03:05:00.226Z,2.00
2023-02-27T03:07:29.903Z,1.47
2023-02-27T03:09:58.853Z,1.70
2023-02-27T03:12:28.630Z,1.50
2023-02-27T03:14:58.641Z,1.53
2023-02-27T03:17:28.412Z,1.70
2023-02-27T03:19:57.530Z,1.70
2023-02-27T03:22:27.342Z,1.80
2023-02-27T03:24:56.069Z,1.40
2023-02-27T03:27:24.542Z,1.57
2023-02-27T03:29:54.942Z,1.73
2023-02-27T03:32:23.973Z,1.50
2023-02-27T03:34:52.400Z,1.47
2023-02-27T03:37:25.939Z,1.83
2023-02-27T03:39:55.241Z,1.53
2023-02-27T03:42:26.087Z,1.80
2023-02-27T03:44:57.327Z,1.87
2023-02-27T03:47:25.803Z,1.67
2023-02-27T03:49:54.306Z,1.40
2023-02-27T03:52:22.798Z,1.60
2023-02-27T03:54:52.853Z,1.77
2023-02-27T03:57:21.349Z,1.73
2023-02-27T03:59:49.895Z,1.80
2023-02-27T04:02:19.690Z,1.80
2023-02-27T04:04:48.224Z,1.73
2023-02-27T04:07:24.538Z,1.63
2023-02-27T04:10:11.953Z,1.73
2023-02-27T04:12:47.980Z,1.70
2023-02-27T04:15:18.346Z,1.90
2023-02-27T04:17:50.498Z,1.70
2023-02-27T04:20:27.877Z,1.77
2023-02-27T04:22:57.004Z,2.10
2023-02-27T04:25:29.254Z,1.97
2023-02-27T04:27:59.269Z,2.00
2023-02-27T04:30:28.401Z,1.60
2023-02-27T04:32:59.226Z,1.60
2023-02-27T04:35:28.645Z,1.60
2023-02-27T04:37:58.076Z,1.80
2023-02-27T04:40:27.033Z,2.03
2023-02-27T04:42:56.046Z,1.90
2023-02-27T04:45:25.022Z,2.10
2023-02-27T04:47:54.260Z,1.80
2023-02-27T04:50:25.863Z,2.57
2023-02-27T04:52:54.866Z,1.90
2023-02-27T04:55:24.060Z,2.40
2023-02-27T04:57:53.332Z,3.27
2023-02-27T05:00:22.258Z,2.07
2023-02-27T05:02:52.726Z,2.00
2023-02-27T05:05:21.915Z,2.17
2023-02-27T05:07:52.623Z,1.90
2023-02-27T05:10:23.322Z,2.30
2023-02-27T05:12:52.243Z,1.80
2023-02-27T05:15:22.157Z,2.03
2023-02-27T05:17:51.583Z,2.37
2023-02-27T05:20:20.053Z,2.30
2023-02-27T05:22:48.998Z,2.37
2023-02-27T05:25:25.796Z,2.20
2023-02-27T05:27:55.020Z,2.30
2023-02-27T05:30:24.077Z,2.30
2023-02-27T05:32:53.183Z,2.90
2023-02-27T05:35:22.359Z,2.50
2023-02-27T05:37:52.031Z,2.43
2023-02-27T05:40:23.584Z,2.33
2023-02-27T05:42:53.352Z,2.40
2023-02-27T05:45:22.557Z,2.23
2023-02-27T05:47:52.250Z,2.50
2023-02-27T05:50:21.730Z,2.80
2023-02-27T05:52:50.271Z,2.67
2023-02-27T05:55:19.390Z,2.40
2023-02-27T05:57:49.970Z,2.60
2023-02-27T06:00:19.292Z,2.37
2023-02-27T06:02:47.720Z,2.33
2023-02-27T06:05:16.588Z,2.60
2023-02-27T06:07:45.166Z,2.73
2023-02-27T06:10:13.762Z,3.13
2023-02-27T06:12:42.483Z,2.87
2023-02-27T06:15:12.954Z,2.87
2023-02-27T06:17:41.416Z,2.97
2023-02-27T06:20:10.233Z,3.23
2023-02-27T06:22:38.635Z,2.90
2023-02-27T06:25:07.402Z,2.70
2023-02-27T06:27:36.038Z,2.93
2023-02-27T06:30:04.460Z,2.63
2023-02-27T06:32:34.197Z,3.07
2023-02-27T06:35:02.740Z,3.20
2023-02-27T06:37:31.211Z,2.67
2023-02-27T06:39:59.666Z,2.80
2023-02-27T06:42:28.318Z,2.80
2023-02-27T06:44:56.735Z,3.07
2023-02-27T06:47:25.164Z,2.97
2023-02-27T06:49:54.979Z,2.93
2023-02-27T06:52:23.530Z,2.67
2023-02-27T06:54:52.040Z,2.77
2023-02-27T06:57:20.527Z,2.87
2023-02-27T06:59:54.898Z,3.03
2023-02-27T07:02:23.848Z,2.77
2023-02-27T07:04:52.363Z,3.07
2023-02-27T07:07:36.274Z,3.33
2023-02-27T07:10:08.004Z,3.13
2023-02-27T07:12:36.463Z,4.10
2023-02-27T07:15:05.060Z,3.13
2023-02-27T07:17:33.624Z,3.20
2023-02-27T07:20:02.196Z,3.40
2023-02-27T07:22:32.150Z,3.13
2023-02-27T07:25:00.741Z,3.30
2023-02-27T07:27:29.345Z,3.20
2023-02-27T07:29:57.916Z,3.30
2023-02-27T07:32:26.347Z,3.20
2023-02-27T07:34:54.891Z,3.00
2023-02-27T07:37:23.299Z,3.50
2023-02-27T07:39:53.153Z,3.10
2023-02-27T07:42:22.682Z,3.60
2023-02-27T07:44:51.054Z,3.40
2023-02-27T07:47:19.646Z,3.40
2023-02-27T07:49:48.050Z,3.20
2023-02-27T07:52:16.686Z,3.00
2023-02-27T07:54:45.824Z,3.83
2023-02-27T07:57:15.697Z,4.07
2023-02-27T07:59:44.140Z,4.00
2023-02-27T08:02:12.654Z,3.03
2023-02-27T08:04:44.168Z,3.30
2023-02-27T08:07:12.697Z,3.50
2023-02-27T08:09:47.033Z,2.90
2023-02-27T08:12:16.968Z,2.77
2023-02-27T08:14:45.503Z,3.60
2023-02-27T08:17:14.134Z,3.33
2023-02-27T08:19:42.590Z,3.13
2023-02-27T08:22:12.387Z,3.20
2023-02-27T08:24:41.215Z,2.93
2023-02-27T08:27:09.840Z,3.30
2023-02-27T08:29:43.437Z,2.87
2023-02-27T08:34:54.761Z,2.50
2023-02-27T08:37:25.398Z,2.70
2023-02-27T08:39:54.236Z,2.60
2023-02-27T08:42:30.071Z,2.73
2023-02-27T08:45:02.920Z,2.40
2023-02-27T08:47:31.707Z,2.73
2023-02-27T08:50:05.537Z,2.20
2023-02-27T08:52:34.568Z,2.47
2023-02-27T08:55:11.490Z,2.20
2023-02-27T08:57:40.277Z,2.43
2023-02-27T09:00:15.033Z,2.30
2023-02-27T09:02:44.164Z,2.33
2023-02-27T09:05:14.152Z,2.57
2023-02-27T09:07:42.732Z,2.83
2023-02-27T09:10:12.635Z,2.10
2023-02-27T09:12:41.277Z,1.97
2023-02-27T09:15:12.426Z,2.00
2023-02-27T09:17:41.336Z,2.30
2023-02-27T09:20:13.572Z,2.20
2023-02-27T09:22:42.371Z,2.00
2023-02-27T09:25:17.468Z,2.43
2023-02-27T09:27:46.515Z,1.90
2023-02-27T09:30:17.904Z,2.40
2023-02-27T09:32:46.933Z,1.77
2023-02-27T09:35:16.022Z,2.20
2023-02-27T09:37:44.915Z,2.47
2023-02-27T09:40:24.869Z,1.97
2023-02-27T09:42:53.681Z,1.80
2023-02-27T09:45:24.958Z,2.40
2023-02-27T09:47:54.011Z,1.90
2023-02-27T09:50:27.221Z,1.93
2023-02-27T09:52:55.935Z,2.23
2023-02-27T09:55:24.630Z,2.27
2023-02-27T09:57:56.469Z,2.03
2023-02-27T10:00:36.023Z,1.97
2023-02-27T10:03:06.919Z,2.00
2023-02-27T10:05:38.210Z,2.20
2023-02-27T10:08:09.227Z,2.23
2023-02-27T10:10:39.378Z,1.80
2023-02-27T10:13:22.789Z,2.10
2023-02-27T10:15:53.947Z,2.20
2023-02-27T10:18:29.013Z,2.37
2023-02-27T10:20:58.774Z,3.23
2023-02-27T10:23:29.757Z,2.33
2023-02-27T10:25:58.637Z,2.73
2023-02-27T10:28:28.012Z,2.33
2023-02-27T10:30:59.532Z,2.00
2023-02-27T10:33:31.138Z,1.97
2023-02-27T10:36:01.979Z,2.43
2023-02-27T10:38:34.957Z,1.90
2023-02-27T10:41:04.014Z,1.90
2023-02-27T10:43:32.440Z,2.17
2023-02-27T10:46:04.209Z,1.90
2023-02-27T10:48:42.157Z,1.80
2023-02-27T10:51:24.414Z,2.10
2023-02-27T10:53:53.776Z,2.00
2023-02-27T10:56:25.296Z,2.40
2023-02-27T10:59:03.638Z,2.43
2023-02-27T11:01:44.800Z,2.90
2023-02-27T11:04:13.946Z,2.00
2023-02-27T11:06:42.558Z,2.00
2023-02-27T11:09:15.168Z,2.37
2023-02-27T11:11:43.714Z,1.77
2023-02-27T11:14:26.164Z,1.90
2023-02-27T11:16:59.736Z,1.57
2023-02-27T11:19:33.466Z,1.73
2023-02-27T11:22:05.894Z,1.60
2023-02-27T11:24:34.864Z,1.63
2023-02-27T11:27:06.424Z,1.30
2023-02-27T11:29:36.269Z,1.70
2023-02-27T11:32:08.037Z,1.93
2023-02-27T11:34:37.465Z,1.50
2023-02-27T11:37:06.415Z,1.40
2023-02-27T11:39:36.250Z,1.13
2023-02-27T11:42:09.601Z,1.80
2023-02-27T11:44:43.293Z,1.63
2023-02-27T11:47:22.082Z,1.27
2023-02-27T11:49:57.228Z,1.47
2023-02-27T11:52:26.026Z,1.40
2023-02-27T11:54:56.117Z,1.40
2023-02-27T11:57:26.576Z,1.43
2023-02-27T11:59:56.367Z,1.43
2023-02-27T12:02:27.327Z,1.60
2023-02-27T12:04:56.519Z,1.50
2023-02-27T12:07:25.508Z,1.57
2023-02-27T12:09:57.947Z,2.00
2023-02-27T12:12:26.723Z,1.50
2023-02-27T12:14:59.731Z,1.47
2023-02-27T12:17:31.507Z,1.33
2023-02-27T12:20:10.441Z,1.20
2023-02-27T12:22:40.256Z,1.20
2023-02-27T12:25:09.652Z,1.30
2023-02-27T12:27:42.194Z,1.60
2023-02-27T12:30:15.350Z,1.40
2023-02-27T12:32:46.018Z,2.00
2023-02-27T12:35:14.935Z,1.70
2023-02-27T12:37:43.613Z,1.93
2023-02-27T12:40:15.690Z,2.23
2023-02-27T12:43:02.505Z,1.57
2023-02-27T12:45:43.929Z,1.30
2023-02-27T12:48:19.306Z,1.50
2023-02-27T12:50:51.625Z,1.40
2023-02-27T12:53:27.500Z,1.30
2023-02-27T12:55:57.017Z,1.40
2023-02-27T12:58:35.586Z,1.50
2023-02-27T13:01:04.572Z,1.60
2023-02-27T13:03:40.011Z,1.30
2023-02-27T13:06:09.544Z,1.27
2023-02-27T13:08:55.755Z,1.20
2023-02-27T13:11:25.927Z,1.50
2023-02-27T13:13:57.818Z,1.70
2023-02-27T13:16:28.818Z,1.30
2023-02-27T13:19:04.620Z,1.37
2023-02-27T13:21:34.074Z,1.00
2023-02-27T13:24:14.410Z,1.30
2023-02-27T13:26:44.236Z,1.00
2023-02-27T13:29:13.459Z,1.53
2023-02-27T13:31:44.229Z,1.60
2023-02-27T13:34:19.053Z,1.00
2023-02-27T13:36:48.446Z,1.40
2023-02-27T13:39:35.462Z,1.20
2023-02-27T13:42:04.374Z,1.33
2023-02-27T13:44:40.009Z,1.10
2023-02-27T13:47:26.876Z,1.07
2023-02-27T13:49:56.831Z,1.00
2023-02-27T13:52:31.883Z,1.03
2023-02-27T13:55:11.294Z,1.03
2023-02-27T13:57:40.392Z,0.90
2023-02-27T14:00:10.018Z,1.30
2023-02-27T14:02:57.785Z,1.00
2023-02-27T14:05:30.259Z,1.20
2023-02-27T14:07:59.920Z,1.40
2023-02-27T14:10:28.757Z,1.10
2023-02-27T14:12:58.948Z,1.20
2023-02-27T14:15:45.994Z,1.00
2023-02-27T14:18:34.165Z,1.50
2023-02-27T14:21:07.626Z,1.77
2023-02-27T14:23:36.362Z,1.57
2023-02-27T14:26:07.300Z,1.97
2023-02-27T14:28:41.783Z,1.10
2023-02-27T14:31:24.220Z,1.20
2023-02-27T14:34:05.110Z,1.37
2023-02-27T14:36:38.062Z,1.37
2023-02-27T14:39:06.667Z,1.53
2023-02-27T14:41:44.844Z,1.60
2023-02-27T14:44:20.279Z,2.07
2023-02-27T14:46:52.326Z,1.50
2023-02-27T14:49:21.638Z,1.60
2023-02-27T14:51:51.971Z,1.30
2023-02-27T14:54:21.824Z,1.83
2023-02-27T14:56:56.572Z,1.30
2023-02-27T14:59:25.444Z,1.40
2023-02-27T15:01:54.704Z,1.63
2023-02-27T15:04:24.264Z,1.43
2023-02-27T15:06:54.576Z,1.70
2023-02-27T15:09:24.246Z,1.70
2023-02-27T15:12:03.196Z,1.80
2023-02-27T15:14:33.427Z,1.77
2023-02-27T15:17:02.296Z,1.80
2023-02-27T15:19:31.175Z,1.70
2023-02-27T15:22:05.274Z,1.50
2023-02-27T15:24:47.865Z,1.70
2023-02-27T15:27:22.972Z,1.20
2023-02-27T15:29:52.662Z,1.47
2023-02-27T15:32:24.158Z,1.70
2023-02-27T15:34:52.764Z,1.37
2023-02-27T15:37:23.438Z,1.43
2023-02-27T15:39:53.904Z,1.63
2023-02-27T15:42:23.755Z,1.53
2023-02-27T15:44:52.910Z,1.70
2023-02-27T15:47:23.612Z,1.20
2023-02-27T15:49:54.056Z,2.03
2023-02-27T15:52:25.866Z,2.37
2023-02-27T15:54:54.754Z,2.00
2023-02-27T15:57:23.654Z,1.63
2023-02-27T15:59:52.265Z,1.50
2023-02-27T16:02:22.645Z,1.50
2023-02-27T16:04:51.692Z,1.40
2023-02-27T16:07:23.913Z,2.20
2023-02-27T16:09:54.765Z,1.50
2023-02-27T16:12:24.534Z,1.77
2023-02-27T16:15:00.274Z,1.60
2023-02-27T16:17:29.515Z,1.50
2023-02-27T16:19:58.277Z,1.27
2023-02-27T16:26:03.458Z,1.47
2023-02-27T16:28:32.868Z,2.03
2023-02-27T16:31:01.318Z,1.77
2023-02-27T16:33:29.990Z,1.40
2023-02-27T16:36:06.548Z,1.90
2023-02-27T16:38:35.108Z,1.80
2023-02-27T16:41:05.021Z,1.47
2023-02-27T16:43:33.771Z,1.57
2023-02-27T16:46:02.235Z,1.60
2023-02-27T16:48:30.792Z,1.50
2023-02-27T16:50:59.318Z,1.80
2023-02-27T16:53:28.110Z,1.60
2023-02-27T16:55:56.717Z,1.50
2023-02-27T16:58:26.584Z,1.53
2023-02-27T17:00:55.048Z,1.43
2023-02-27T17:03:24.027Z,1.60
2023-02-27T17:05:53.818Z,1.77
2023-02-27T17:08:23.112Z,1.73
2023-02-27T17:10:53.528Z,1.50
2023-02-27T17:13:22.091Z,1.33
2023-02-27T17:15:52.246Z,1.60
2023-02-27T17:18:21.191Z,1.63
2023-02-27T17:20:51.347Z,1.60
2023-02-27T17:23:20.185Z,1.53
2023-02-27T17:25:49.706Z,1.70
2023-02-27T17:28:18.278Z,1.50
2023-02-27T17:30:46.927Z,1.83
2023-02-27T17:33:16.946Z,1.73
2023-02-27T17:35:45.648Z,2.20
2023-02-27T17:38:14.670Z,1.80
2023-02-27T17:40:43.174Z,1.50
2023-02-27T17:43:11.810Z,1.77
2023-02-27T17:45:40.540Z,1.70
2023-02-27T17:48:10.395Z,1.73
2023-02-27T17:50:40.301Z,1.90
2023-02-27T17:53:09.906Z,1.90
2023-02-27T17:55:40.608Z,1.67
2023-02-27T17:58:10.349Z,1.80
2023-02-27T18:00:38.785Z,1.57
2023-02-27T18:03:07.546Z,2.37
2023-02-27T18:05:36.026Z,1.87
2023-02-27T18:08:06.098Z,1.60
2023-02-27T18:10:34.632Z,2.03
2023-02-27T18:13:05.147Z,2.13
2023-02-27T18:15:34.072Z,2.00
2023-02-27T18:18:02.618Z,2.13
2023-02-27T18:20:31.598Z,2.20
2023-02-27T18:23:00.168Z,1.80
2023-02-27T18:25:30.524Z,2.10
2023-02-27T18:27:59.042Z,2.30
2023-02-27T18:30:28.895Z,2.13
2023-02-27T18:32:59.228Z,1.93
2023-02-27T18:35:27.975Z,2.00
2023-02-27T18:37:56.521Z,2.20
2023-02-27T18:40:26.731Z,2.83
2023-02-27T18:42:56.701Z,2.70
2023-02-27T18:45:25.655Z,2.43
2023-02-27T18:47:54.845Z,2.60
2023-02-27T18:50:23.544Z,2.93
2023-02-27T18:52:52.686Z,2.30
2023-02-27T18:55:21.570Z,3.10
2023-02-27T18:57:51.428Z,2.93
2023-02-27T19:00:24.256Z,3.20
2023-02-27T19:02:53.283Z,2.97
2023-02-27T19:05:22.183Z,3.00
2023-02-27T19:07:52.826Z,2.50
2023-02-27T19:10:21.761Z,2.40
2023-02-27T19:12:51.591Z,2.50
2023-02-27T19:15:22.118Z,2.63
2023-02-27T19:17:50.747Z,2.10
2023-02-27T19:20:19.416Z,2.40
2023-02-27T19:22:48.356Z,2.50
2023-02-27T19:25:17.582Z,2.67
2023-02-27T19:27:46.852Z,3.00
2023-02-27T19:30:15.537Z,3.90
2023-02-27T19:32:45.414Z,4.30
2023-02-27T19:35:15.342Z,4.30
2023-02-27T19:37:46.832Z,4.40
2023-02-27T19:40:15.635Z,4.17
2023-02-27T19:42:45.628Z,3.63
2023-02-27T19:45:14.220Z,3.40
2023-02-27T19:47:42.883Z,4.17
2023-02-27T19:50:13.732Z,4.40
2023-02-27T19:52:42.345Z,4.87
2023-02-27T19:55:11.124Z,5.27
2023-02-27T19:57:39.972Z,5.70
2023-02-27T20:00:09.183Z,5.03
2023-02-27T20:02:37.895Z,4.90
2023-02-27T20:05:08.293Z,4.40
2023-02-27T20:07:39.300Z,3.93
2023-02-27T20:10:08.127Z,4.27
2023-02-27T20:12:36.630Z,4.53
2023-02-27T20:15:09.936Z,4.07
2023-02-27T20:17:38.500Z,3.80
2023-02-27T20:20:07.593Z,3.60
2023-02-27T20:22:36.376Z,3.73
2023-02-27T20:25:06.753Z,3.77
2023-02-27T20:27:35.807Z,3.73
2023-02-27T20:30:04.391Z,3.83
2023-02-27T20:32:32.988Z,4.03
2023-02-27T20:35:01.701Z,4.27
2023-02-27T20:37:32.004Z,3.23
2023-02-27T20:40:00.567Z,3.40
2023-02-27T20:42:30.571Z,3.00
2023-02-27T20:44:59.089Z,3.00
2023-02-27T20:47:28.156Z,3.23
2023-02-27T20:49:57.020Z,3.73
2023-02-27T20:52:25.852Z,4.23
2023-02-27T20:54:55.350Z,4.27
2023-02-27T20:57:24.025Z,4.10
2023-02-27T20:59:54.347Z,4.00
2023-02-27T21:02:23.554Z,5.00
2023-02-27T21:04:53.887Z,4.70
2023-02-27T21:07:23.693Z,3.90
2023-02-27T21:09:52.380Z,4.10
2023-02-27T21:12:21.252Z,4.17
2023-02-27T21:14:54.353Z,4.37
2023-02-27T21:17:28.350Z,3.57
2023-02-27T21:19:57.529Z,3.80
2023-02-27T21:22:26.623Z,4.17
2023-02-27T21:24:55.131Z,4.23
2023-02-27T21:27:24.018Z,3.53
2023-02-27T21:29:54.050Z,3.80
2023-02-27T21:32:23.899Z,3.40
2023-02-27T21:34:52.764Z,3.80
2023-02-27T21:37:21.473Z,3.77
2023-02-27T21:39:54.265Z,3.57
2023-02-27T21:42:23.416Z,3.67
2023-02-27T21:44:52.243Z,3.57
2023-02-27T21:47:23.178Z,3.43
2023-02-27T21:49:52.344Z,4.20
2023-02-27T21:52:21.105Z,8.50
2023-02-27T21:54:50.508Z,5.80
2023-02-27T21:57:21.661Z,4.47
2023-02-27T21:59:50.345Z,3.73
2023-02-27T22:02:20.882Z,4.23
2023-02-27T22:04:50.905Z,4.13
2023-02-27T22:07:19.391Z,4.17
2023-02-27T22:09:50.178Z,4.13
2023-02-27T22:12:19.195Z,3.73
2023-02-27T22:14:47.700Z,3.90
2023-02-27T22:17:16.290Z,3.50
2023-02-27T22:19:44.948Z,3.77
2023-02-27T22:22:14.922Z,3.10
2023-02-27T22:24:43.289Z,3.60
2023-02-27T22:27:11.713Z,3.40
2023-02-27T22:29:42.260Z,4.00
2023-02-27T22:32:11.654Z,4.17
2023-02-27T22:34:41.175Z,3.57
2023-02-27T22:37:09.730Z,3.90
2023-02-27T22:39:40.154Z,3.57
2023-02-27T22:42:08.701Z,3.57
2023-02-27T22:44:37.145Z,3.37
2023-02-27T22:47:05.608Z,3.47
2023-02-27T22:49:34.063Z,3.83
2023-02-27T22:52:02.623Z,3.47
2023-02-27T22:54:31.053Z,3.57
2023-02-27T22:57:00.992Z,3.97
2023-02-27T22:59:29.495Z,3.23
2023-02-27T23:01:58.641Z,3.70
2023-02-27T23:04:27.456Z,3.60
2023-02-27T23:06:56.493Z,3.63
2023-02-27T23:09:27.182Z,3.43
2023-02-27T23:11:57.090Z,3.40
2023-02-27T23:14:27.928Z,3.40
2023-02-27T23:16:56.505Z,3.43
2023-02-27T23:19:25.600Z,3.37
2023-02-27T23:21:54.182Z,3.57
2023-02-27T23:24:22.783Z,4.07
2023-02-27T23:26:52.498Z,4.00
2023-02-27T23:29:22.051Z,3.43
2023-02-27T23:31:52.203Z,3.60
2023-02-27T23:34:20.981Z,3.33
2023-02-27T23:36:50.687Z,3.30
2023-02-27T23:39:19.898Z,3.10
2023-02-27T23:41:49.325Z,3.43
2023-02-27T23:44:18.202Z,3.70
2023-02-27T23:46:46.654Z,3.20
2023-02-27T23:49:16.649Z,3.50
2023-02-27T23:51:45.189Z,3.27
2023-02-27T23:54:13.885Z,3.30
2023-02-27T23:56:42.622Z,3.43
2023-02-27T23:59:11.144Z,3.27
